createdAt,value
2023-03-07T00:00:16.832Z,80.9
2023-03-07T00:01:17.298Z,80.9
2023-03-07T00:02:17.465Z,80.9
2023-03-07T00:03:16.998Z,81.0
2023-03-07T00:04:16.528Z,81.1
2023-03-07T00:05:17.045Z,81.1
2023-03-07T00:06:16.549Z,81.2
2023-03-07T00:07:17.041Z,81.3
2023-03-07T00:08:16.531Z,81.4
2023-03-07T00:09:17.074Z,81.3
2023-03-07T00:10:16.623Z,81.5
2023-03-07T00:11:17.129Z,81.7
2023-03-07T00:12:17.412Z,81.7
2023-03-07T00:13:16.908Z,81.7
2023-03-07T00:14:17.439Z,81.8
2023-03-07T00:15:16.909Z,81.9
2023-03-07T00:16:17.567Z,82.1
2023-03-07T00:17:17.061Z,82.1
2023-03-07T00:18:16.532Z,82.1
2023-03-07T00:19:17.044Z,82.1
2023-03-07T00:20:16.564Z,82.2
2023-03-07T00:21:17.067Z,82.3
2023-03-07T00:22:17.103Z,82.3
2023-03-07T00:23:16.598Z,82.4
2023-03-07T00:24:17.150Z,82.4
2023-03-07T00:25:16.663Z,82.4
2023-03-07T00:26:17.153Z,82.5
2023-03-07T00:27:16.635Z,82.5
2023-03-07T00:28:17.164Z,82.6
2023-03-07T00:29:16.684Z,82.6
2023-03-07T00:30:17.218Z,82.7
2023-03-07T00:31:16.864Z,82.7
2023-03-07T00:32:17.560Z,82.8
2023-03-07T00:33:17.079Z,82.7
2023-03-07T00:34:16.591Z,82.8
2023-03-07T00:35:17.101Z,82.8
2023-03-07T00:36:16.642Z,82.9
2023-03-07T00:37:17.169Z,82.9
2023-03-07T00:38:16.667Z,82.9
2023-03-07T00:39:17.180Z,83.0
2023-03-07T00:40:16.715Z,83.0
2023-03-07T00:41:17.248Z,83.0
2023-03-07T00:42:16.514Z,83.0
2023-03-07T00:43:17.003Z,83.0
2023-03-07T00:44:16.476Z,83.1
2023-03-07T00:45:16.983Z,83.1
2023-03-07T00:46:16.510Z,83.1
2023-03-07T00:47:17.102Z,83.1
2023-03-07T00:48:16.597Z,83.2
2023-03-07T00:49:17.104Z,83.2
2023-03-07T00:50:16.647Z,83.2
2023-03-07T00:51:17.154Z,83.2
2023-03-07T00:52:16.744Z,83.2
2023-03-07T00:53:17.249Z,83.3
2023-03-07T00:54:16.749Z,83.3
2023-03-07T00:55:17.265Z,83.3
2023-03-07T00:56:16.787Z,83.4
2023-03-07T00:57:17.311Z,83.3
2023-03-07T00:58:16.818Z,83.3
2023-03-07T00:59:17.341Z,83.3
2023-03-07T01:00:16.845Z,83.4
2023-03-07T01:01:17.451Z,83.4
2023-03-07T01:02:16.611Z,83.4
2023-03-07T01:03:17.126Z,83.4
2023-03-07T01:04:16.696Z,83.4
2023-03-07T01:05:17.233Z,83.4
2023-03-07T01:06:16.707Z,83.5
2023-03-07T01:07:17.239Z,83.4
2023-03-07T01:08:16.710Z,83.5
2023-03-07T01:09:17.259Z,83.5
2023-03-07T01:10:16.751Z,83.5
2023-03-07T01:11:17.278Z,83.4
2023-03-07T01:12:16.550Z,83.4
2023-03-07T01:13:17.101Z,83.4
2023-03-07T01:14:16.644Z,83.4
2023-03-07T01:15:17.227Z,83.4
2023-03-07T01:16:16.898Z,83.4
2023-03-07T01:17:17.429Z,83.4
2023-03-07T01:18:16.919Z,83.3
2023-03-07T01:19:17.434Z,83.3
2023-03-07T01:20:16.931Z,83.2
2023-03-07T01:21:17.453Z,83.3
2023-03-07T01:22:16.997Z,83.3
2023-03-07T01:23:16.479Z,83.3
2023-03-07T01:24:16.971Z,83.2
2023-03-07T01:25:16.468Z,83.2
2023-03-07T01:26:16.960Z,83.2
2023-03-07T01:27:17.491Z,83.0
2023-03-07T01:28:17.035Z,83.1
2023-03-07T01:29:16.553Z,83.1
2023-03-07T01:30:17.110Z,83.1
2023-03-07T01:31:16.624Z,83.1
2023-03-07T01:32:17.054Z,83.1
2023-03-07T01:33:16.591Z,83.0
2023-03-07T01:34:17.121Z,83.0
2023-03-07T01:35:16.615Z,83.0
2023-03-07T01:36:17.457Z,82.9
2023-03-07T01:37:17.010Z,82.9
2023-03-07T01:38:16.488Z,82.9
2023-03-07T01:39:17.117Z,82.9
2023-03-07T01:40:16.609Z,82.9
2023-03-07T01:41:17.216Z,82.9
2023-03-07T01:42:17.445Z,82.8
2023-03-07T01:43:16.937Z,82.8
2023-03-07T01:44:17.477Z,82.7
2023-03-07T01:45:16.986Z,82.8
2023-03-07T01:46:16.592Z,82.8
2023-03-07T01:47:17.136Z,82.8
2023-03-07T01:48:16.620Z,82.7
2023-03-07T01:49:17.102Z,82.7
2023-03-07T01:50:16.676Z,82.6
2023-03-07T01:51:17.160Z,82.6
2023-03-07T01:52:17.450Z,82.6
2023-03-07T01:53:16.960Z,82.7
2023-03-07T01:54:17.444Z,82.6
2023-03-07T01:55:16.949Z,82.6
2023-03-07T01:56:17.475Z,82.6
2023-03-07T01:57:16.978Z,82.6
2023-03-07T01:58:16.454Z,82.5
2023-03-07T01:59:16.942Z,82.6
2023-03-07T02:00:17.492Z,82.5
2023-03-07T02:01:17.166Z,82.6
2023-03-07T02:02:17.227Z,82.6
2023-03-07T02:03:16.696Z,82.6
2023-03-07T02:04:17.362Z,82.5
2023-03-07T02:05:16.902Z,82.5
2023-03-07T02:06:17.455Z,82.5
2023-03-07T02:07:16.997Z,82.5
2023-03-07T02:08:16.504Z,82.5
2023-03-07T02:09:17.040Z,82.5
2023-03-07T02:10:16.553Z,82.4
2023-03-07T02:11:17.036Z,82.5
2023-03-07T02:12:16.538Z,82.4
2023-03-07T02:13:17.028Z,82.4
2023-03-07T02:14:16.550Z,82.5
2023-03-07T02:15:17.045Z,82.5
2023-03-07T02:16:16.599Z,82.5
2023-03-07T02:17:17.091Z,82.4
2023-03-07T02:18:16.601Z,82.4
2023-03-07T02:19:17.134Z,82.3
2023-03-07T02:20:16.647Z,82.3
2023-03-07T02:21:17.147Z,82.2
2023-03-07T02:22:16.517Z,82.3
2023-03-07T02:23:17.064Z,82.2
2023-03-07T02:24:16.623Z,82.1
2023-03-07T02:25:17.120Z,82.1
2023-03-07T02:26:16.614Z,82.2
2023-03-07T02:27:17.130Z,82.1
2023-03-07T02:28:16.605Z,82.2
2023-03-07T02:29:17.128Z,82.1
2023-03-07T02:30:16.631Z,82.1
2023-03-07T02:31:17.228Z,82.1
2023-03-07T02:32:17.574Z,82.0
2023-03-07T02:33:17.050Z,82.0
2023-03-07T02:34:16.561Z,81.9
2023-03-07T02:35:17.068Z,81.9
2023-03-07T02:36:16.566Z,81.9
2023-03-07T02:37:17.052Z,82.0
2023-03-07T02:38:16.575Z,81.9
2023-03-07T02:39:17.076Z,81.9
2023-03-07T02:40:16.585Z,81.9
2023-03-07T02:41:17.065Z,82.0
2023-03-07T02:42:16.534Z,81.9
2023-03-07T02:43:17.029Z,82.0
2023-03-07T02:44:16.509Z,82.0
2023-03-07T02:45:16.992Z,82.1
2023-03-07T02:46:16.558Z,82.0
2023-03-07T02:47:17.097Z,82.0
2023-03-07T02:48:16.585Z,82.1
2023-03-07T02:49:17.081Z,81.9
2023-03-07T02:50:16.609Z,81.8
2023-03-07T02:51:17.123Z,81.8
2023-03-07T02:52:17.406Z,81.8
2023-03-07T02:53:16.915Z,81.8
2023-03-07T02:54:17.471Z,81.9
2023-03-07T02:55:16.989Z,82.0
2023-03-07T02:56:16.491Z,82.0
2023-03-07T02:57:16.983Z,82.1
2023-03-07T02:58:16.485Z,82.2
2023-03-07T02:59:16.988Z,82.3
2023-03-07T03:00:16.479Z,82.4
2023-03-07T03:01:17.068Z,82.5
2023-03-07T03:02:16.969Z,82.5
2023-03-07T03:03:16.440Z,82.5
2023-03-07T03:04:17.030Z,82.6
2023-03-07T03:05:16.562Z,82.7
2023-03-07T03:06:17.061Z,82.6
2023-03-07T03:07:16.598Z,82.8
2023-03-07T03:08:17.074Z,83.3
2023-03-07T03:09:16.562Z,83.4
2023-03-07T03:10:17.060Z,83.7
2023-03-07T03:11:16.536Z,83.8
2023-03-07T03:12:16.915Z,83.8
2023-03-07T03:13:17.503Z,84.1
2023-03-07T03:14:16.989Z,84.3
2023-03-07T03:15:16.487Z,84.7
2023-03-07T03:16:17.160Z,84.8
2023-03-07T03:17:16.674Z,84.9
2023-03-07T03:18:17.189Z,84.8
2023-03-07T03:19:16.686Z,84.9
2023-03-07T03:20:17.205Z,85.1
2023-03-07T03:21:16.724Z,85.0
2023-03-07T03:22:17.250Z,85.2
2023-03-07T03:23:16.746Z,85.5
2023-03-07T03:24:17.278Z,86.0
2023-03-07T03:25:16.833Z,86.2
2023-03-07T03:26:17.490Z,86.2
2023-03-07T03:27:17.037Z,86.5
2023-03-07T03:28:16.528Z,87.0
2023-03-07T03:29:17.017Z,87.4
2023-03-07T03:30:16.523Z,87.5
2023-03-07T03:31:17.114Z,88.0
2023-03-07T03:32:17.476Z,88.4
2023-03-07T03:33:17.012Z,88.6
2023-03-07T03:34:16.499Z,88.8
2023-03-07T03:35:17.048Z,88.8
2023-03-07T03:36:16.545Z,88.7
2023-03-07T03:37:17.047Z,89.4
2023-03-07T03:38:16.530Z,89.6
2023-03-07T03:39:17.015Z,90.0
2023-03-07T03:40:16.531Z,89.9
2023-03-07T03:41:17.033Z,90.2
2023-03-07T03:42:17.297Z,90.3
2023-03-07T03:43:16.780Z,90.3
2023-03-07T03:44:17.283Z,90.6
2023-03-07T03:45:16.788Z,90.9
2023-03-07T03:46:17.423Z,90.7
2023-03-07T03:47:16.913Z,90.8
2023-03-07T03:48:17.397Z,90.9
2023-03-07T03:49:16.984Z,91.2
2023-03-07T03:50:16.502Z,91.3
2023-03-07T03:51:16.999Z,91.1
2023-03-07T03:52:17.227Z,91.4
2023-03-07T03:53:16.699Z,91.6
2023-03-07T03:54:17.210Z,91.6
2023-03-07T03:55:16.729Z,91.6
2023-03-07T03:56:17.233Z,91.8
2023-03-07T03:57:16.712Z,91.8
2023-03-07T03:58:17.233Z,91.5
2023-03-07T03:59:16.746Z,91.6
2023-03-07T04:00:19.470Z,91.6
2023-03-07T04:01:17.173Z,91.5
2023-03-07T04:02:17.712Z,91.5
2023-03-07T04:03:17.208Z,91.6
2023-03-07T04:04:16.709Z,91.8
2023-03-07T04:05:17.210Z,91.6
2023-03-07T04:06:16.719Z,91.9
2023-03-07T04:07:17.252Z,92.0
2023-03-07T04:08:16.761Z,91.9
2023-03-07T04:09:17.271Z,92.0
2023-03-07T04:10:16.800Z,92.0
2023-03-07T04:11:17.277Z,91.7
2023-03-07T04:12:16.556Z,91.7
2023-03-07T04:13:17.051Z,91.8
2023-03-07T04:14:16.541Z,91.7
2023-03-07T04:15:17.054Z,91.7
2023-03-07T04:16:16.655Z,91.6
2023-03-07T04:17:17.217Z,91.6
2023-03-07T04:18:16.681Z,91.5
2023-03-07T04:19:17.148Z,91.5
2023-03-07T04:20:16.661Z,91.5
2023-03-07T04:21:17.144Z,91.5
2023-03-07T04:22:16.772Z,91.3
2023-03-07T04:23:17.256Z,91.4
2023-03-07T04:24:16.790Z,91.4
2023-03-07T04:25:17.291Z,91.2
2023-03-07T04:26:16.794Z,91.2
2023-03-07T04:27:17.335Z,91.2
2023-03-07T04:28:16.848Z,91.2
2023-03-07T04:29:17.346Z,91.0
2023-03-07T04:30:16.838Z,91.0
2023-03-07T04:31:17.416Z,90.9
2023-03-07T04:32:17.252Z,90.7
2023-03-07T04:33:16.760Z,90.7
2023-03-07T04:34:17.250Z,90.7
2023-03-07T04:35:16.768Z,90.6
2023-03-07T04:36:17.291Z,90.5
2023-03-07T04:37:16.787Z,90.5
2023-03-07T04:38:17.307Z,90.5
2023-03-07T04:39:16.841Z,90.4
2023-03-07T04:40:17.353Z,90.4
2023-03-07T04:41:16.844Z,90.5
2023-03-07T04:42:17.490Z,90.3
2023-03-07T04:43:17.002Z,90.4
2023-03-07T04:44:16.501Z,90.3
2023-03-07T04:45:17.019Z,90.2
2023-03-07T04:46:16.818Z,90.0
2023-03-07T04:47:17.396Z,90.0
2023-03-07T04:48:16.946Z,90.0
2023-03-07T04:49:17.535Z,89.9
2023-03-07T04:50:17.029Z,89.9
2023-03-07T04:51:16.543Z,89.7
2023-03-07T04:52:16.984Z,89.5
2023-03-07T04:53:16.488Z,89.5
2023-03-07T04:54:16.995Z,89.5
2023-03-07T04:55:16.507Z,89.5
2023-03-07T04:56:17.010Z,89.3
2023-03-07T04:57:16.510Z,89.2
2023-03-07T04:58:16.989Z,89.0
2023-03-07T04:59:16.465Z,89.1
2023-03-07T05:00:16.963Z,88.9
2023-03-07T05:01:17.523Z,88.6
2023-03-07T05:02:17.050Z,88.6
2023-03-07T05:03:16.540Z,88.4
2023-03-07T05:04:17.117Z,88.5
2023-03-07T05:05:16.615Z,88.5
2023-03-07T05:06:17.127Z,88.7
2023-03-07T05:07:16.620Z,88.7
2023-03-07T05:08:17.114Z,88.7
2023-03-07T05:09:16.576Z,88.8
2023-03-07T05:10:17.090Z,88.7
2023-03-07T05:11:16.690Z,88.9
2023-03-07T05:12:17.274Z,89.0
2023-03-07T05:13:16.790Z,89.0
2023-03-07T05:14:17.319Z,89.0
2023-03-07T05:15:16.847Z,89.0
2023-03-07T05:16:17.428Z,89.1
2023-03-07T05:17:16.963Z,89.2
2023-03-07T05:18:17.452Z,89.3
2023-03-07T05:19:16.947Z,89.2
2023-03-07T05:20:17.505Z,89.4
2023-03-07T05:21:16.990Z,89.4
2023-03-07T05:22:16.974Z,89.4
2023-03-07T05:23:16.463Z,89.6
2023-03-07T05:24:16.951Z,89.6
2023-03-07T05:25:17.464Z,89.6
2023-03-07T05:26:16.968Z,89.5
2023-03-07T05:27:17.480Z,89.5
2023-03-07T05:28:17.097Z,89.5
2023-03-07T05:29:16.607Z,89.4
2023-03-07T05:30:17.119Z,89.4
2023-03-07T05:31:18.779Z,89.4
2023-03-07T05:32:17.148Z,89.4
2023-03-07T05:33:16.729Z,89.3
2023-03-07T05:34:17.230Z,89.3
2023-03-07T05:35:16.748Z,89.2
2023-03-07T05:36:17.274Z,89.1
2023-03-07T05:37:16.772Z,89.0
2023-03-07T05:38:17.255Z,89.0
2023-03-07T05:39:16.753Z,88.9
2023-03-07T05:40:17.285Z,88.9
2023-03-07T05:41:16.769Z,88.9
2023-03-07T05:42:16.474Z,88.6
2023-03-07T05:43:17.008Z,88.5
2023-03-07T05:44:16.515Z,88.5
2023-03-07T05:45:17.052Z,88.4
2023-03-07T05:46:16.640Z,88.2
2023-03-07T05:47:17.183Z,88.3
2023-03-07T05:48:16.675Z,88.4
2023-03-07T05:49:17.144Z,88.3
2023-03-07T05:50:16.668Z,88.2
2023-03-07T05:51:17.160Z,88.2
2023-03-07T05:52:16.736Z,88.1
2023-03-07T05:53:17.226Z,88.2
2023-03-07T05:54:16.719Z,88.0
2023-03-07T05:55:17.218Z,87.8
2023-03-07T05:56:16.704Z,87.7
2023-03-07T05:57:17.208Z,87.8
2023-03-07T05:58:16.715Z,87.6
2023-03-07T05:59:17.224Z,87.7
2023-03-07T06:00:16.721Z,87.7
2023-03-07T06:01:17.226Z,87.7
2023-03-07T06:02:16.868Z,87.7
2023-03-07T06:03:17.370Z,87.8
2023-03-07T06:04:16.845Z,87.7
2023-03-07T06:05:17.344Z,87.7
2023-03-07T06:06:16.843Z,87.6
2023-03-07T06:07:17.363Z,87.6
2023-03-07T06:08:16.820Z,87.5
2023-03-07T06:09:17.341Z,87.6
2023-03-07T06:10:16.906Z,87.6
2023-03-07T06:11:17.427Z,87.5
2023-03-07T06:12:16.562Z,87.5
2023-03-07T06:13:17.041Z,87.4
2023-03-07T06:14:16.571Z,87.4
2023-03-07T06:15:17.240Z,87.4
2023-03-07T06:16:16.778Z,87.5
2023-03-07T06:17:17.330Z,87.5
2023-03-07T06:18:16.809Z,87.4
2023-03-07T06:19:17.325Z,87.5
2023-03-07T06:20:16.808Z,87.5
2023-03-07T06:21:17.310Z,87.6
2023-03-07T06:22:16.856Z,87.6
2023-03-07T06:23:17.376Z,87.5
2023-03-07T06:24:16.856Z,87.5
2023-03-07T06:25:17.371Z,87.5
2023-03-07T06:26:16.887Z,87.3
2023-03-07T06:27:17.426Z,87.3
2023-03-07T06:28:16.965Z,87.2
2023-03-07T06:29:16.480Z,87.2
2023-03-07T06:30:16.970Z,87.3
2023-03-07T06:31:16.609Z,87.4
2023-03-07T06:32:16.826Z,87.3
2023-03-07T06:33:17.304Z,87.3
2023-03-07T06:34:16.817Z,87.2
2023-03-07T06:35:17.458Z,87.1
2023-03-07T06:36:17.120Z,87.1
2023-03-07T06:37:16.616Z,87.1
2023-03-07T06:38:17.102Z,87.1
2023-03-07T06:39:16.597Z,87.2
2023-03-07T06:40:17.083Z,87.2
2023-03-07T06:41:16.610Z,87.1
2023-03-07T06:42:17.397Z,87.2
2023-03-07T06:43:16.885Z,87.1
2023-03-07T06:44:17.396Z,87.1
2023-03-07T06:45:16.907Z,87.1
2023-03-07T06:46:17.412Z,87.1
2023-03-07T06:47:16.914Z,87.0
2023-03-07T06:48:17.529Z,87.0
2023-03-07T06:49:17.019Z,87.0
2023-03-07T06:50:33.391Z,86.8
2023-03-07T06:51:16.846Z,86.9
2023-03-07T06:52:16.482Z,86.9
2023-03-07T06:53:16.989Z,86.9
2023-03-07T06:54:16.498Z,86.7
2023-03-07T06:55:17.028Z,86.8
2023-03-07T06:56:16.517Z,86.6
2023-03-07T06:57:17.019Z,86.6
2023-03-07T06:58:16.540Z,86.5
2023-03-07T06:59:17.017Z,86.5
2023-03-07T07:00:16.510Z,86.4
2023-03-07T07:01:17.008Z,86.4
2023-03-07T07:02:17.530Z,86.4
2023-03-07T07:03:17.427Z,86.3
2023-03-07T07:04:17.013Z,86.3
2023-03-07T07:05:16.501Z,86.3
2023-03-07T07:06:16.967Z,86.2
2023-03-07T07:07:17.448Z,86.1
2023-03-07T07:08:16.927Z,86.1
2023-03-07T07:09:17.385Z,86.1
2023-03-07T07:10:16.879Z,86.1
2023-03-07T07:11:17.386Z,86.0
2023-03-07T07:12:16.627Z,85.8
2023-03-07T07:13:17.130Z,85.7
2023-03-07T07:14:16.634Z,85.7
2023-03-07T07:15:17.143Z,85.8
2023-03-07T07:16:16.719Z,85.8
2023-03-07T07:17:17.231Z,85.7
2023-03-07T07:18:16.720Z,85.7
2023-03-07T07:19:17.199Z,85.6
2023-03-07T07:20:16.681Z,85.6
2023-03-07T07:21:17.194Z,85.5
2023-03-07T07:22:16.648Z,85.6
2023-03-07T07:23:17.139Z,85.3
2023-03-07T07:24:16.644Z,85.2
2023-03-07T07:25:17.148Z,85.0
2023-03-07T07:26:16.643Z,85.0
2023-03-07T07:27:17.181Z,84.9
2023-03-07T07:28:16.708Z,84.8
2023-03-07T07:29:17.194Z,84.6
2023-03-07T07:30:16.732Z,84.5
2023-03-07T07:31:17.211Z,84.4
2023-03-07T07:32:17.170Z,84.3
2023-03-07T07:33:17.014Z,84.3
2023-03-07T07:34:16.567Z,84.2
2023-03-07T07:35:17.064Z,84.1
2023-03-07T07:36:16.606Z,84.1
2023-03-07T07:37:17.118Z,83.8
2023-03-07T07:38:16.626Z,84.0
2023-03-07T07:39:17.142Z,83.8
2023-03-07T07:40:16.671Z,83.7
2023-03-07T07:41:17.168Z,83.8
2023-03-07T07:42:16.842Z,83.6
2023-03-07T07:43:17.345Z,83.4
2023-03-07T07:44:16.837Z,83.5
2023-03-07T07:45:17.358Z,83.4
2023-03-07T07:46:16.975Z,83.3
2023-03-07T07:47:16.496Z,83.1
2023-03-07T07:48:16.988Z,83.0
2023-03-07T07:49:18.943Z,82.9
2023-03-07T07:50:16.474Z,83.0
2023-03-07T07:51:16.999Z,82.9
2023-03-07T07:52:17.495Z,83.1
2023-03-07T07:53:17.007Z,83.0
2023-03-07T07:54:16.509Z,83.1
2023-03-07T07:55:17.007Z,83.2
2023-03-07T07:56:16.497Z,82.9
2023-03-07T07:57:16.980Z,83.0
2023-03-07T07:58:16.503Z,82.9
2023-03-07T07:59:16.988Z,82.9
2023-03-07T08:00:16.499Z,83.0
2023-03-07T08:01:16.987Z,83.0
2023-03-07T08:02:17.550Z,82.7
2023-03-07T08:03:17.200Z,82.7
2023-03-07T08:04:16.747Z,82.6
2023-03-07T08:05:17.255Z,82.6
2023-03-07T08:06:19.891Z,82.6
2023-03-07T08:07:16.535Z,82.6
2023-03-07T08:08:17.053Z,82.5
2023-03-07T08:09:16.575Z,82.5
2023-03-07T08:10:17.080Z,82.4
2023-03-07T08:11:17.599Z,82.5
2023-03-07T08:12:17.084Z,82.4
2023-03-07T08:13:16.595Z,82.2
2023-03-07T08:14:17.104Z,82.2
2023-03-07T08:15:16.617Z,82.2
2023-03-07T08:16:17.306Z,82.2
2023-03-07T08:17:16.812Z,82.2
2023-03-07T08:18:17.333Z,82.0
2023-03-07T08:19:16.829Z,82.1
2023-03-07T08:20:17.330Z,82.1
2023-03-07T08:21:16.827Z,82.1
2023-03-07T08:22:17.451Z,82.0
2023-03-07T08:23:16.967Z,81.8
2023-03-07T08:24:17.462Z,81.9
2023-03-07T08:25:16.943Z,81.7
2023-03-07T08:26:17.451Z,81.7
2023-03-07T08:27:16.968Z,81.6
2023-03-07T08:28:17.469Z,81.4
2023-03-07T08:29:17.017Z,81.6
2023-03-07T08:30:16.565Z,81.4
2023-03-07T08:31:17.170Z,81.5
2023-03-07T08:32:16.790Z,81.4
2023-03-07T08:33:17.277Z,81.4
2023-03-07T08:34:16.786Z,81.2
2023-03-07T08:35:17.305Z,81.0
2023-03-07T08:36:16.944Z,81.1
2023-03-07T08:37:17.475Z,81.0
2023-03-07T08:38:16.964Z,80.9
2023-03-07T08:39:17.510Z,80.9
2023-03-07T08:40:16.994Z,80.7
2023-03-07T08:41:16.463Z,80.7
2023-03-07T08:42:16.674Z,80.4
2023-03-07T08:43:17.184Z,80.7
2023-03-07T08:44:16.712Z,80.3
2023-03-07T08:45:17.256Z,80.2
2023-03-07T08:46:16.892Z,80.3
2023-03-07T08:47:17.438Z,80.3
2023-03-07T08:48:16.945Z,80.1
2023-03-07T08:49:17.485Z,80.3
2023-03-07T08:50:16.974Z,80.2
2023-03-07T08:51:16.521Z,80.0
2023-03-07T08:52:16.979Z,79.8
2023-03-07T08:53:16.491Z,79.7
2023-03-07T08:54:16.965Z,79.7
2023-03-07T08:55:17.479Z,79.6
2023-03-07T08:56:16.980Z,79.6
2023-03-07T08:57:16.476Z,79.6
2023-03-07T08:58:17.026Z,79.6
2023-03-07T08:59:16.554Z,79.4
2023-03-07T09:00:17.066Z,79.2
2023-03-07T09:01:16.586Z,79.2
2023-03-07T09:02:16.510Z,79.2
2023-03-07T09:03:17.018Z,79.3
2023-03-07T09:04:16.767Z,79.2
2023-03-07T09:05:17.327Z,79.0
2023-03-07T09:06:16.806Z,78.8
2023-03-07T09:07:17.400Z,78.8
2023-03-07T09:08:16.897Z,78.9
2023-03-07T09:09:17.383Z,78.4
2023-03-07T09:10:16.902Z,78.3
2023-03-07T09:11:17.412Z,78.3
2023-03-07T09:12:17.086Z,78.2
2023-03-07T09:13:18.646Z,78.1
2023-03-07T09:14:17.244Z,77.9
2023-03-07T09:15:16.768Z,78.1
2023-03-07T09:16:17.309Z,77.6
2023-03-07T09:17:16.836Z,77.4
2023-03-07T09:18:17.344Z,77.3
2023-03-07T09:19:16.840Z,76.9
2023-03-07T09:20:17.363Z,76.8
2023-03-07T09:21:16.862Z,76.8
2023-03-07T09:22:16.628Z,76.3
2023-03-07T09:23:17.148Z,76.4
2023-03-07T09:24:16.636Z,76.5
2023-03-07T09:25:17.156Z,76.4
2023-03-07T09:26:16.659Z,75.9
2023-03-07T09:27:17.178Z,75.8
2023-03-07T09:28:16.686Z,75.7
2023-03-07T09:29:17.203Z,75.7
2023-03-07T09:30:16.712Z,75.7
2023-03-07T09:31:17.416Z,75.7
2023-03-07T09:32:16.957Z,75.9
2023-03-07T09:33:17.479Z,75.9
2023-03-07T09:34:17.000Z,75.9
2023-03-07T09:35:16.521Z,75.8
2023-03-07T09:36:17.024Z,75.5
2023-03-07T09:37:16.572Z,75.2
2023-03-07T09:38:17.084Z,75.1
2023-03-07T09:39:16.605Z,75.1
2023-03-07T09:40:17.118Z,74.9
2023-03-07T09:41:16.632Z,75.1
2023-03-07T09:42:17.301Z,74.9
2023-03-07T09:43:16.843Z,74.4
2023-03-07T09:44:17.362Z,74.4
2023-03-07T09:45:16.841Z,74.5
2023-03-07T09:46:17.352Z,74.7
2023-03-07T09:47:16.878Z,74.6
2023-03-07T09:48:17.366Z,74.4
2023-03-07T09:49:16.854Z,74.5
2023-03-07T09:50:17.351Z,74.4
2023-03-07T09:51:16.887Z,74.4
2023-03-07T09:52:17.316Z,74.3
2023-03-07T09:53:16.815Z,74.4
2023-03-07T09:54:17.296Z,74.4
2023-03-07T09:55:16.840Z,74.2
2023-03-07T09:56:17.336Z,74.1
2023-03-07T09:57:18.033Z,74.1
2023-03-07T09:58:16.546Z,74.0
2023-03-07T09:59:23.995Z,73.9
2023-03-07T10:00:16.631Z,74.0
2023-03-07T10:01:17.117Z,73.8
2023-03-07T10:02:16.494Z,73.9
2023-03-07T10:03:17.048Z,73.4
2023-03-07T10:04:16.634Z,73.2
2023-03-07T10:05:17.194Z,73.1
2023-03-07T10:06:16.682Z,73.1
2023-03-07T10:07:17.204Z,72.9
2023-03-07T10:08:16.702Z,72.9
2023-03-07T10:09:17.274Z,72.9
2023-03-07T10:10:16.772Z,72.8
2023-03-07T10:11:17.341Z,72.8
2023-03-07T10:12:17.079Z,72.9
2023-03-07T10:13:16.592Z,73.0
2023-03-07T10:14:17.189Z,72.9
2023-03-07T10:15:17.005Z,72.9
2023-03-07T10:16:16.766Z,72.6
2023-03-07T10:17:17.354Z,72.7
2023-03-07T10:18:17.208Z,72.6
2023-03-07T10:19:16.999Z,72.5
2023-03-07T10:20:16.668Z,72.4
2023-03-07T10:21:17.218Z,72.7
2023-03-07T10:22:17.392Z,72.4
2023-03-07T10:23:16.909Z,72.3
2023-03-07T10:24:17.417Z,72.2
2023-03-07T10:25:16.908Z,72.2
2023-03-07T10:26:17.384Z,71.9
2023-03-07T10:27:16.892Z,71.7
2023-03-07T10:28:17.385Z,71.5
2023-03-07T10:29:16.914Z,71.3
2023-03-07T10:30:17.445Z,71.5
2023-03-07T10:31:17.121Z,71.5
2023-03-07T10:32:17.133Z,71.1
2023-03-07T10:33:16.676Z,70.7
2023-03-07T10:34:27.665Z,70.9
2023-03-07T10:35:17.349Z,70.4
2023-03-07T10:36:16.823Z,70.6
2023-03-07T10:37:17.353Z,70.5
2023-03-07T10:38:16.844Z,70.8
2023-03-07T10:39:17.379Z,70.3
2023-03-07T10:40:16.870Z,70.3
2023-03-07T10:41:17.369Z,70.2
2023-03-07T10:42:16.987Z,70.5
2023-03-07T10:43:16.491Z,70.1
2023-03-07T10:44:17.044Z,69.9
2023-03-07T10:45:16.758Z,69.4
2023-03-07T10:46:27.046Z,68.9
2023-03-07T10:47:16.973Z,69.1
2023-03-07T10:48:16.629Z,69.2
2023-03-07T10:49:17.118Z,68.2
2023-03-07T10:50:16.639Z,68.0
2023-03-07T10:51:17.138Z,68.5
2023-03-07T10:52:16.541Z,67.9
2023-03-07T10:53:17.050Z,68.5
2023-03-07T10:54:16.542Z,68.1
2023-03-07T10:55:17.062Z,67.8
2023-03-07T10:56:16.592Z,67.7
2023-03-07T10:57:17.132Z,67.5
2023-03-07T10:58:16.624Z,67.8
2023-03-07T10:59:17.097Z,67.7
2023-03-07T11:00:16.657Z,67.9
2023-03-07T11:01:17.236Z,67.9
2023-03-07T11:02:16.775Z,67.4
2023-03-07T11:03:17.308Z,67.4
2023-03-07T11:04:16.818Z,67.6
2023-03-07T11:05:17.326Z,67.5
2023-03-07T11:06:16.816Z,67.5
2023-03-07T11:07:17.310Z,67.0
2023-03-07T11:08:16.824Z,67.0
2023-03-07T11:09:17.377Z,67.3
2023-03-07T11:10:16.949Z,67.2
2023-03-07T11:11:16.529Z,66.9
2023-03-07T11:12:17.022Z,67.4
2023-03-07T11:13:16.571Z,66.8
2023-03-07T11:14:19.129Z,66.9
2023-03-07T11:15:16.686Z,66.6
2023-03-07T11:16:17.370Z,66.6
2023-03-07T11:17:16.871Z,67.1
2023-03-07T11:18:17.381Z,67.2
2023-03-07T11:19:16.908Z,66.7
2023-03-07T11:20:17.446Z,66.4
2023-03-07T11:21:16.934Z,66.8
2023-03-07T11:22:16.716Z,66.6
2023-03-07T11:23:17.204Z,67.1
2023-03-07T11:24:16.745Z,66.7
2023-03-07T11:25:17.300Z,66.7
2023-03-07T11:26:16.816Z,66.8
2023-03-07T11:27:17.346Z,66.6
2023-03-07T11:28:16.809Z,66.7
2023-03-07T11:29:17.341Z,66.8
2023-03-07T11:30:17.000Z,66.9
2023-03-07T11:31:16.658Z,66.6
2023-03-07T11:32:16.710Z,67.0
2023-03-07T11:33:17.223Z,66.5
2023-03-07T11:34:16.730Z,66.4
2023-03-07T11:35:17.233Z,66.0
2023-03-07T11:36:16.734Z,66.3
2023-03-07T11:37:17.235Z,66.2
2023-03-07T11:38:16.748Z,66.3
2023-03-07T11:39:17.236Z,66.5
2023-03-07T11:40:16.817Z,66.1
2023-03-07T11:41:17.334Z,65.9
2023-03-07T11:42:17.188Z,66.7
2023-03-07T11:43:16.653Z,66.3
2023-03-07T11:44:17.160Z,66.2
2023-03-07T11:45:16.668Z,66.3
2023-03-07T11:46:17.341Z,66.2
2023-03-07T11:47:16.855Z,66.2
2023-03-07T11:48:17.368Z,66.0
2023-03-07T11:49:21.803Z,66.1
2023-03-07T11:50:17.338Z,65.6
2023-03-07T11:51:16.835Z,65.8
2023-03-07T11:52:16.540Z,65.9
2023-03-07T11:53:17.073Z,65.4
2023-03-07T11:54:16.574Z,65.4
2023-03-07T11:55:17.054Z,65.5
2023-03-07T11:56:16.585Z,65.6
2023-03-07T11:57:17.082Z,65.4
2023-03-07T11:58:16.581Z,65.3
2023-03-07T11:59:17.123Z,65.1
2023-03-07T12:00:16.697Z,65.4
2023-03-07T12:01:17.196Z,65.5
2023-03-07T12:02:17.469Z,64.6
2023-03-07T12:03:16.994Z,64.6
2023-03-07T12:04:16.504Z,64.6
2023-03-07T12:05:17.273Z,64.9
2023-03-07T12:06:16.840Z,65.0
2023-03-07T12:07:17.325Z,63.7
2023-03-07T12:08:16.830Z,63.9
2023-03-07T12:09:17.327Z,63.6
2023-03-07T12:10:16.859Z,63.6
2023-03-07T12:11:17.351Z,63.7
2023-03-07T12:12:16.687Z,63.8
2023-03-07T12:13:17.187Z,63.6
2023-03-07T12:14:16.695Z,63.8
2023-03-07T12:15:17.230Z,63.8
2023-03-07T12:16:16.753Z,63.7
2023-03-07T12:17:17.282Z,64.0
2023-03-07T12:18:16.805Z,64.2
2023-03-07T12:19:17.298Z,64.0
2023-03-07T12:20:16.817Z,64.0
2023-03-07T12:21:17.340Z,64.2
2023-03-07T12:22:16.815Z,64.2
2023-03-07T12:23:17.394Z,64.3
2023-03-07T12:24:16.907Z,64.2
2023-03-07T12:25:17.427Z,64.4
2023-03-07T12:26:16.924Z,64.4
2023-03-07T12:27:17.545Z,64.3
2023-03-07T12:28:17.173Z,64.3
2023-03-07T12:29:16.668Z,64.1
2023-03-07T12:30:17.145Z,64.1
2023-03-07T12:31:16.805Z,64.0
2023-03-07T12:32:17.774Z,64.3
2023-03-07T12:33:17.645Z,64.2
2023-03-07T12:34:17.186Z,64.2
2023-03-07T12:35:16.721Z,64.3
2023-03-07T12:36:17.254Z,64.2
2023-03-07T12:37:16.749Z,64.3
2023-03-07T12:38:17.225Z,64.6
2023-03-07T12:39:16.759Z,64.9
2023-03-07T12:40:17.259Z,64.9
2023-03-07T12:41:16.735Z,65.0
2023-03-07T12:42:17.255Z,64.4
2023-03-07T12:43:16.732Z,64.2
2023-03-07T12:44:17.294Z,64.5
2023-03-07T12:45:17.011Z,64.3
2023-03-07T12:46:16.623Z,64.4
2023-03-07T12:47:17.145Z,64.4
2023-03-07T12:48:16.624Z,64.4
2023-03-07T12:49:17.120Z,64.7
2023-03-07T12:50:16.635Z,64.7
2023-03-07T12:51:17.152Z,65.1
2023-03-07T12:52:16.511Z,65.0
2023-03-07T12:53:17.001Z,65.0
2023-03-07T12:54:16.500Z,64.8
2023-03-07T12:55:17.029Z,65.0
2023-03-07T12:56:16.559Z,64.9
2023-03-07T12:57:17.086Z,64.9
2023-03-07T12:58:16.585Z,64.8
2023-03-07T12:59:17.108Z,64.9
2023-03-07T13:00:16.629Z,65.1
2023-03-07T13:01:17.441Z,65.0
2023-03-07T13:02:16.538Z,65.1
2023-03-07T13:03:17.017Z,65.2
2023-03-07T13:04:16.625Z,65.1
2023-03-07T13:05:17.136Z,65.2
2023-03-07T13:06:16.648Z,65.3
2023-03-07T13:07:17.159Z,65.2
2023-03-07T13:08:16.643Z,65.1
2023-03-07T13:09:17.181Z,65.3
2023-03-07T13:10:16.703Z,65.2
2023-03-07T13:11:17.298Z,64.7
2023-03-07T13:12:16.960Z,64.6
2023-03-07T13:13:16.478Z,64.6
2023-03-07T13:14:17.035Z,64.6
2023-03-07T13:15:16.545Z,64.6
2023-03-07T13:16:17.231Z,64.7
2023-03-07T13:17:16.738Z,64.7
2023-03-07T13:18:17.251Z,64.6